Time;durP1;ratioP1;P1;durP2;ratioP2;P2;SDS_P1;SDS_P2;PMS_P1;PMS_P2;Temp;Humidity;BMP_temperature;BMP_pressure;BME280_temperature;BME280_humidity;BME280_pressure;Samples;Min_cycle;Max_cycle;Signal;HPM_P1;HPM_P2
2021/11/25 00:00:39;;;;;;;1.10;0.68;;;20.20;51.50;;;;;;4907504;29;20032;-42
2021/11/25 00:03:05;;;;;;;1.13;0.80;;;20.20;51.50;;;;;;4907472;29;20176;-42
2021/11/25 00:05:32;;;;;;;0.65;0.47;;;20.30;52.20;;;;;;4907611;29;20069;-43
2021/11/25 00:07:58;;;;;;;2.40;0.85;;;20.30;51.40;;;;;;4907229;29;20177;-43
2021/11/25 00:10:24;;;;;;;1.02;0.50;;;20.20;51.20;;;;;;4907409;29;20028;-41
2021/11/25 00:12:53;;;;;;;1.42;0.77;;;20.20;51.20;;;;;;4907503;29;20035;-43
2021/11/25 00:15:19;;;;;;;0.80;0.68;;;20.10;51.20;;;;;;4907399;29;20032;-43
2021/11/25 00:17:46;;;;;;;1.00;0.70;;;20.10;51.30;;;;;;4907215;29;20029;-43
2021/11/25 00:20:12;;;;;;;1.15;0.80;;;20.10;51.30;;;;;;4924636;29;20073;-42
2021/11/25 00:22:39;;;;;;;1.20;0.80;;;20.10;51.50;;;;;;4919155;29;20657;-43
2021/11/25 00:25:06;;;;;;;1.20;0.80;;;20.20;51.60;;;;;;4906057;29;20098;-42
2021/11/25 00:27:32;;;;;;;1.00;0.68;;;20.20;51.60;;;;;;4907219;29;20043;-42
2021/11/25 00:29:59;;;;;;;2.22;0.88;;;20.20;51.30;;;;;;4906799;29;20043;-42
2021/11/25 00:32:25;;;;;;;0.98;0.65;;;20.20;51.30;;;;;;4907127;29;20036;-43
2021/11/25 00:34:51;;;;;;;1.83;0.80;;;20.10;51.30;;;;;;4906932;29;20044;-41
2021/11/25 00:37:17;;;;;;;1.15;0.90;;;20.10;51.30;;;;;;4906823;29;20518;-42
2021/11/25 00:39:43;;;;;;;1.08;0.80;;;20.00;51.40;;;;;;4907188;29;20036;-43
2021/11/25 00:42:09;;;;;;;0.93;0.75;;;20.10;51.60;;;;;;4907026;29;20029;-42
2021/11/25 00:44:35;;;;;;;0.95;0.80;;;20.20;51.60;;;;;;4906851;29;20032;-42
2021/11/25 00:47:01;;;;;;;1.52;0.80;;;20.20;51.70;;;;;;4890107;29;20043;-42
2021/11/25 00:49:27;;;;;;;1.05;0.80;;;20.20;51.40;;;;;;4907039;29;20036;-42
2021/11/25 00:51:53;;;;;;;0.88;0.75;;;20.20;51.30;;;;;;4906866;29;20032;-42
2021/11/25 00:54:20;;;;;;;1.50;0.88;;;20.10;51.30;;;;;;4906474;29;20567;-42
2021/11/25 00:56:46;;;;;;;2.38;0.80;;;20.00;51.40;;;;;;4897508;29;20088;-41
2021/11/25 00:59:12;;;;;;;1.17;0.70;;;20.00;51.60;;;;;;4906280;29;20040;-43
2021/11/25 01:01:38;;;;;;;1.15;0.70;;;20.10;51.60;;;;;;4906936;29;20036;-42
2021/11/25 01:04:05;;;;;;;1.15;0.77;;;20.20;51.70;;;;;;4906698;29;20028;-42
2021/11/25 01:06:31;;;;;;;1.08;0.70;;;20.20;51.70;;;;;;4908307;29;20024;-42
2021/11/25 01:08:57;;;;;;;0.90;0.75;;;20.20;51.40;;;;;;4906683;29;20032;-45
2021/11/25 01:11:25;;;;;;;1.35;0.90;;;20.20;51.40;;;;;;4906753;29;20039;-44
2021/11/25 01:13:52;;;;;;;0.93;0.88;;;20.10;51.40;;;;;;4906753;29;20114;-42
2021/11/25 01:16:19;;;;;;;1.13;0.68;;;20.00;51.40;;;;;;4906579;29;20028;-42
2021/11/25 01:18:45;;;;;;;0.85;0.70;;;20.00;51.60;;;;;;4912731;29;20056;-41
2021/11/25 01:21:11;;;;;;;1.45;0.70;;;20.10;51.70;;;;;;4914910;29;20062;-42
2021/11/25 01:23:38;;;;;;;1.27;0.98;;;20.20;51.70;;;;;;4906446;29;20167;-44
2021/11/25 01:26:04;;;;;;;1.77;1.05;;;20.20;51.80;;;;;;4896019;29;20196;-44
2021/11/25 01:28:30;;;;;;;2.28;0.88;;;20.20;51.50;;;;;;4903287;29;20405;-42
2021/11/25 01:30:58;;;;;;;1.15;0.90;;;20.10;51.40;;;;;;4888040;29;20036;-42
2021/11/25 01:33:24;;;;;;;;;;;20.10;51.40;;;;;;4888593;29;20036;-42
2021/11/25 01:35:50;;;;;;;2.08;0.88;;;20.00;51.40;;;;;;4870929;29;19976;-42
2021/11/25 01:38:16;;;;;;;1.80;0.93;;;20.00;51.60;;;;;;4887471;29;20033;-44
2021/11/25 01:40:43;;;;;;;0.98;0.80;;;20.10;51.70;;;;;;4887940;29;20502;-42
2021/11/25 01:43:10;;;;;;;2.75;0.98;;;20.10;51.70;;;;;;4891116;29;20044;-42
2021/11/25 01:45:36;;;;;;;1.95;0.93;;;20.20;51.80;;;;;;4874352;29;20069;-42
2021/11/25 01:48:03;;;;;;;1.10;0.97;;;20.20;51.50;;;;;;4908269;29;20035;-43
2021/11/25 01:50:29;;;;;;;1.35;1.13;;;20.10;51.40;;;;;;4909738;29;20036;-44
2021/11/25 01:52:55;;;;;;;1.45;0.93;;;20.10;51.50;;;;;;4909684;29;20036;-44
2021/11/25 01:55:22;;;;;;;1.52;0.80;;;20.00;51.50;;;;;;4903019;29;20040;-42
2021/11/25 01:57:49;;;;;;;2.13;1.20;;;20.00;51.70;;;;;;4906257;29;20064;-42
2021/11/25 02:00:18;;;;;;;;;;;20.10;51.70;;;;;;4910076;29;20059;-43
2021/11/25 02:02:44;;;;;;;1.95;1.35;;;20.20;51.70;;;;;;4909709;29;19918;-42
2021/11/25 02:05:10;;;;;;;1.80;0.98;;;20.20;51.60;;;;;;4909487;29;20036;-44
2021/11/25 02:07:36;;;;;;;1.52;1.05;;;20.20;51.50;;;;;;4909337;29;20024;-41
2021/11/25 02:10:04;;;;;;;3.10;1.35;;;20.10;51.50;;;;;;4909801;29;20032;-42
2021/11/25 02:12:30;;;;;;;2.08;1.15;;;20.00;51.60;;;;;;4909526;29;20127;-46
2021/11/25 02:14:56;;;;;;;1.65;1.27;;;20.00;51.70;;;;;;4909492;29;20036;-42
2021/11/25 02:17:22;;;;;;;1.98;1.50;;;20.00;51.80;;;;;;4908382;29;20105;-44
2021/11/25 02:19:49;;;;;;;1.52;1.08;;;20.10;51.70;;;;;;4923899;29;20055;-42
2021/11/25 02:22:15;;;;;;;2.13;1.50;;;20.20;51.80;;;;;;4928311;29;20028;-44
2021/11/25 02:24:41;;;;;;;2.50;1.55;;;20.20;51.50;;;;;;4924421;29;20100;-41
2021/11/25 02:27:08;;;;;;;2.10;1.40;;;20.10;51.50;;;;;;4900230;29;20784;-42
2021/11/25 02:29:34;;;;;;;1.75;1.25;;;20.00;51.50;;;;;;4909139;29;20033;-43
2021/11/25 02:32:00;;;;;;;1.98;1.30;;;20.00;51.70;;;;;;4909212;29;20033;-42
2021/11/25 02:34:26;;;;;;;2.90;1.80;;;20.10;51.80;;;;;;4909261;29;20088;-42
2021/11/25 02:36:52;;;;;;;1.77;1.50;;;20.10;51.90;;;;;;4908759;29;20033;-43
2021/11/25 02:39:20;;;;;;;2.05;1.38;;;20.20;51.80;;;;;;4908872;29;20040;-43
2021/11/25 02:41:46;;;;;;;2.75;1.40;;;20.20;51.60;;;;;;4909015;29;20056;-41
2021/11/25 02:44:13;;;;;;;3.38;1.67;;;20.10;51.50;;;;;;4908945;29;20039;-41
2021/11/25 02:46:39;;;;;;;2.90;1.55;;;20.00;51.50;;;;;;4908519;29;20069;-42
2021/11/25 02:49:05;;;;;;;3.05;1.88;;;19.90;51.60;;;;;;4908445;29;20028;-41
2021/11/25 02:51:31;;;;;;;2.55;1.65;;;20.00;51.80;;;;;;4908666;29;20132;-43
2021/11/25 02:53:58;;;;;;;2.20;1.73;;;20.10;51.90;;;;;;4907884;29;20032;-42
2021/11/25 02:56:25;;;;;;;2.88;1.90;;;20.20;51.90;;;;;;4898695;29;20318;-41
2021/11/25 02:58:52;;;;;;;;;;;20.20;51.70;;;;;;4909112;29;20049;-43
2021/11/25 03:01:47;;;;;;;2.50;1.75;;;20.10;51.40;;;;;;4908711;29;20448;-42
2021/11/25 03:04:13;;;;;;;2.35;1.65;;;20.00;51.60;;;;;;4850330;29;20045;-43
2021/11/25 03:06:39;;;;;;;2.40;1.80;;;19.90;51.60;;;;;;4849996;29;20116;-42
2021/11/25 03:09:06;;;;;;;2.45;1.88;;;20.00;51.80;;;;;;4849995;29;20041;-42
2021/11/25 03:11:32;;;;;;;2.88;2.13;;;20.10;51.80;;;;;;4850061;29;20048;-41
2021/11/25 03:14:03;;;;;;;2.38;1.95;;;20.10;51.80;;;;;;4849877;29;20034;-42
2021/11/25 03:16:30;;;;;;;2.78;2.08;;;20.20;51.90;;;;;;4849705;29;20119;-43
2021/11/25 03:18:56;;;;;;;2.55;2.03;;;20.20;51.60;;;;;;4855342;29;20110;-43
2021/11/25 03:21:23;;;;;;;2.67;2.10;;;20.10;51.50;;;;;;4853053;29;20582;-43
2021/11/25 03:23:49;;;;;;;3.15;2.13;;;20.00;51.60;;;;;;4852841;29;20056;-42
2021/11/25 03:26:19;;;;;;;3.15;2.40;;;20.00;51.70;;;;;;4864949;29;20041;-42
2021/11/25 03:28:45;;;;;;;3.50;2.22;;;20.00;51.80;;;;;;4860988;29;20097;-42
2021/11/25 03:31:16;;;;;;;2.60;2.05;;;20.10;51.80;;;;;;4871774;29;20852;-41
2021/11/25 03:33:42;;;;;;;2.85;2.53;;;20.20;51.80;;;;;;4868168;29;20049;-41
2021/11/25 03:36:09;;;;;;;3.33;2.50;;;20.20;51.70;;;;;;4867774;29;20029;-42
2021/11/25 03:38:35;;;;;;;3.63;2.28;;;20.10;51.50;;;;;;4877008;29;20066;-42
2021/11/25 03:41:02;;;;;;;3.30;2.23;;;20.00;51.60;;;;;;4913663;29;20048;-41
2021/11/25 03:43:28;;;;;;;2.60;2.03;;;20.00;51.70;;;;;;4926692;29;20024;-42
2021/11/25 03:45:54;;;;;;;3.95;2.15;;;20.00;51.80;;;;;;4926897;29;20111;-41
2021/11/25 03:48:23;;;;;;;3.25;2.40;;;20.10;51.90;;;;;;4926517;29;20040;-42
2021/11/25 03:50:50;;;;;;;3.20;2.38;;;20.10;51.80;;;;;;4928938;29;20032;-41
2021/11/25 03:53:16;;;;;;;3.70;2.50;;;20.20;51.80;;;;;;4926387;29;20036;-42
2021/11/25 03:55:43;;;;;;;3.22;2.45;;;20.20;51.60;;;;;;4917501;29;20036;-44
2021/11/25 03:58:09;;;;;;;4.93;2.30;;;20.10;51.50;;;;;;4925415;29;20032;-42
2021/11/25 04:00:35;;;;;;;3.53;2.40;;;20.00;51.60;;;;;;4926526;29;20079;-42
2021/11/25 04:03:01;;;;;;;3.03;2.13;;;20.00;51.80;;;;;;4926491;29;20129;-42
2021/11/25 04:05:27;;;;;;;2.42;1.70;;;20.10;51.80;;;;;;4925663;29;20024;-42
2021/11/25 04:07:53;;;;;;;2.97;2.22;;;20.20;51.90;;;;;;4925969;29;20056;-42
2021/11/25 04:10:20;;;;;;;3.53;2.60;;;20.20;51.80;;;;;;4926424;29;20036;-43
2021/11/25 04:12:46;;;;;;;3.17;2.20;;;20.20;51.60;;;;;;4922913;29;20032;-42
2021/11/25 04:15:12;;;;;;;3.10;2.35;;;20.10;51.50;;;;;;4926373;29;20024;-42
2021/11/25 04:17:38;;;;;;;2.43;1.90;;;20.00;51.60;;;;;;4925943;29;20032;-42
2021/11/25 04:20:05;;;;;;;3.33;2.15;;;19.90;51.80;;;;;;4911496;29;20076;-46
2021/11/25 04:22:31;;;;;;;3.35;2.45;;;20.00;51.80;;;;;;4907195;29;20630;-42
2021/11/25 04:24:59;;;;;;;3.15;2.40;;;20.10;51.80;;;;;;4906383;29;20058;-42
2021/11/25 04:27:25;;;;;;;3.25;2.25;;;20.20;51.90;;;;;;4896142;29;20085;-42
2021/11/25 04:30:01;;;;;;;3.03;2.20;;;20.20;52.10;;;;;;4906933;29;20048;-41
2021/11/25 04:35:28;;;;;;;3.25;2.35;;;20.00;51.60;;;;;;4907341;29;20047;-42
2021/11/25 04:37:55;;;;;;;3.65;2.40;;;20.00;51.80;;;;;;4892021;29;20047;-42
2021/11/25 04:40:21;;;;;;;3.90;2.08;;;20.10;51.80;;;;;;4907049;29;20172;-42
2021/11/25 04:42:48;;;;;;;2.20;1.90;;;20.20;51.80;;;;;;4907564;29;20066;-41
2021/11/25 04:45:14;;;;;;;3.25;2.60;;;20.30;51.80;;;;;;4908985;29;20033;-42
2021/11/25 04:47:40;;;;;;;3.13;2.33;;;20.20;51.50;;;;;;4906811;29;20066;-42
2021/11/25 04:50:07;;;;;;;3.05;2.30;;;20.10;51.50;;;;;;4889881;29;20524;-42
2021/11/25 04:52:33;;;;;;;3.20;2.38;;;20.00;51.60;;;;;;4906759;29;20085;-42
2021/11/25 04:54:59;;;;;;;3.15;2.15;;;20.00;51.70;;;;;;4903352;29;20033;-41
2021/11/25 04:57:25;;;;;;;3.60;2.40;;;20.00;51.80;;;;;;4900413;29;20068;-42
2021/11/25 04:59:51;;;;;;;3.35;2.55;;;20.10;51.80;;;;;;4906770;29;20118;-42
2021/11/25 05:02:17;;;;;;;3.53;2.80;;;20.20;51.70;;;;;;4907079;29;20025;-42
2021/11/25 05:04:43;;;;;;;3.92;2.28;;;20.20;51.50;;;;;;4907020;29;20037;-42
2021/11/25 05:07:09;;;;;;;3.30;2.33;;;20.10;51.40;;;;;;4906597;29;20036;-41
2021/11/25 05:09:35;;;;;;;2.83;2.40;;;20.00;51.50;;;;;;4906509;29;20096;-41
2021/11/25 05:12:02;;;;;;;3.40;2.70;;;20.00;51.60;;;;;;4906937;29;20039;-43
2021/11/25 05:14:28;;;;;;;3.47;2.38;;;20.00;51.80;;;;;;4906712;29;20032;-42
2021/11/25 05:16:54;;;;;;;3.38;2.47;;;20.10;51.80;;;;;;4908551;29;20039;-42
2021/11/25 05:19:20;;;;;;;4.45;2.95;;;20.20;51.80;;;;;;4915169;29;20067;-42
2021/11/25 05:21:47;;;;;;;5.20;2.75;;;20.20;51.70;;;;;;4929491;29;20032;-41
2021/11/25 05:24:16;;;;;;;3.78;2.53;;;20.20;51.50;;;;;;4929151;29;20047;-42
2021/11/25 05:26:42;;;;;;;3.78;2.50;;;20.10;51.50;;;;;;4922082;29;20039;-45
2021/11/25 05:29:08;;;;;;;3.20;2.25;;;20.00;51.60;;;;;;4926340;29;20385;-42
2021/11/25 05:31:34;;;;;;;4.80;2.45;;;20.00;51.80;;;;;;4943343;29;20034;-42
2021/11/25 05:34:00;;;;;;;3.28;2.15;;;20.00;51.80;;;;;;4947554;29;20202;-42
2021/11/25 05:36:26;;;;;;;2.53;2.15;;;20.10;51.70;;;;;;4947910;29;20100;-42
2021/11/25 05:38:53;;;;;;;3.22;2.53;;;20.20;51.80;;;;;;4948018;29;20048;-42
2021/11/25 05:41:19;;;;;;;3.38;2.30;;;20.20;51.60;;;;;;4948009;29;20547;-41
2021/11/25 05:43:45;;;;;;;4.05;2.50;;;20.20;51.50;;;;;;4948119;29;20138;-42
2021/11/25 05:46:11;;;;;;;3.95;2.55;;;20.10;51.50;;;;;;4918850;29;20044;-44
2021/11/25 05:48:37;;;;;;;3.35;2.22;;;20.00;51.60;;;;;;4924965;29;20039;-43
2021/11/25 05:51:03;;;;;;;3.47;2.42;;;20.00;51.80;;;;;;4928644;29;20032;-43
2021/11/25 05:53:29;;;;;;;2.95;2.35;;;20.10;51.80;;;;;;4928592;29;20024;-44
2021/11/25 05:55:55;;;;;;;4.00;2.85;;;20.20;51.80;;;;;;4919266;29;20044;-42
2021/11/25 05:58:21;;;;;;;3.65;2.40;;;20.20;51.70;;;;;;4947745;29;20075;-43
2021/11/25 06:00:48;;;;;;;2.88;2.33;;;20.20;51.50;;;;;;4947612;29;20032;-43
2021/11/25 06:03:14;;;;;;;3.72;2.45;;;20.10;51.60;;;;;;4947844;29;20028;-42
2021/11/25 06:05:41;;;;;;;3.78;2.78;;;20.00;51.60;;;;;;4947585;29;20036;-43
2021/11/25 06:08:07;;;;;;;3.78;2.28;;;20.00;51.80;;;;;;4947584;29;20035;-41
2021/11/25 06:10:33;;;;;;;4.32;2.85;;;20.10;51.80;;;;;;4947209;29;20040;-45
2021/11/25 06:12:59;;;;;;;3.97;2.55;;;20.20;51.80;;;;;;4947560;29;20512;-42
2021/11/25 06:15:25;;;;;;;3.90;2.70;;;20.20;51.70;;;;;;4947525;29;20544;-44
2021/11/25 06:17:52;;;;;;;3.47;2.42;;;20.20;51.50;;;;;;4947226;29;20070;-42
2021/11/25 06:20:18;;;;;;;2.92;2.40;;;20.00;51.50;;;;;;4946914;29;20071;-42
2021/11/25 06:22:47;;;;;;;2.55;1.88;;;20.00;51.60;;;;;;4931139;29;20035;-45
2021/11/25 06:25:14;;;;;;;4.10;2.72;;;20.00;51.80;;;;;;4927626;29;20036;-41
2021/11/25 06:27:40;;;;;;;4.28;2.72;;;20.10;51.80;;;;;;4916081;29;20092;-42
2021/11/25 06:30:09;;;;;;;3.38;2.63;;;20.20;51.70;;;;;;4927905;29;20541;-42
2021/11/25 06:32:36;;;;;;;3.88;2.30;;;20.20;51.70;;;;;;4928330;29;20497;-41
2021/11/25 06:35:07;;;;;;;3.00;2.13;;;20.20;51.50;;;;;;4928286;29;20024;-42
2021/11/25 06:37:33;;;;;;;3.65;2.65;;;20.00;51.50;;;;;;4928107;29;20290;-41
2021/11/25 06:39:59;;;;;;;3.28;2.40;;;20.00;51.70;;;;;;4946391;29;20031;-42
2021/11/25 06:42:25;;;;;;;3.90;2.70;;;20.10;51.70;;;;;;4946920;29;20023;-41
2021/11/25 06:44:51;;;;;;;3.97;2.42;;;20.20;51.80;;;;;;4947015;29;20063;-42
2021/11/25 06:47:17;;;;;;;3.00;2.28;;;20.20;51.70;;;;;;4946604;29;20032;-42
2021/11/25 06:49:43;;;;;;;3.60;2.58;;;20.20;51.50;;;;;;4932692;29;20043;-43
2021/11/25 06:52:09;;;;;;;4.15;2.80;;;20.00;51.50;;;;;;4927606;29;20049;-42
2021/11/25 06:54:35;;;;;;;2.85;2.40;;;20.00;51.60;;;;;;4922112;29;20557;-41
2021/11/25 06:57:02;;;;;;;4.20;2.70;;;20.00;51.70;;;;;;4918501;29;20029;-41
2021/11/25 06:59:28;;;;;;;3.10;2.65;;;20.10;51.80;;;;;;4908833;29;20044;-42
2021/11/25 07:01:55;;;;;;;4.97;2.40;;;20.20;51.80;;;;;;4936379;29;20066;-42
2021/11/25 07:04:22;;;;;;;3.40;2.60;;;20.20;51.70;;;;;;4946682;29;20035;-44
2021/11/25 07:06:48;;;;;;;3.35;2.30;;;20.20;51.60;;;;;;4946590;29;20023;-43
2021/11/25 07:09:14;;;;;;;3.80;2.28;;;20.10;51.50;;;;;;4946300;29;20024;-44
2021/11/25 07:11:40;;;;;;;3.78;2.67;;;20.00;51.60;;;;;;4946014;29;20031;-41
2021/11/25 07:14:08;;;;;;;3.55;2.72;;;20.00;51.80;;;;;;4946519;29;20123;-42
2021/11/25 07:16:35;;;;;;;3.30;2.40;;;20.10;51.80;;;;;;4946259;29;20027;-42
2021/11/25 07:19:02;;;;;;;3.72;2.53;;;20.20;51.80;;;;;;4946075;29;20743;-42
2021/11/25 07:21:28;;;;;;;3.38;2.60;;;20.20;51.70;;;;;;4945366;29;20036;-42
2021/11/25 07:23:54;;;;;;;2.72;1.95;;;20.20;51.50;;;;;;4943722;29;20035;-42
2021/11/25 07:26:21;;;;;;;4.57;2.60;;;20.10;51.50;;;;;;4926432;29;20490;-41
2021/11/25 07:28:47;;;;;;;4.30;2.42;;;20.00;51.60;;;;;;4920308;29;20053;-44
2021/11/25 07:31:13;;;;;;;4.30;2.75;;;20.00;51.70;;;;;;4926873;29;20031;-42
2021/11/25 07:33:39;;;;;;;3.65;2.72;;;20.10;51.80;;;;;;4926973;29;20036;-42
2021/11/25 07:36:06;;;;;;;3.72;2.75;;;20.20;51.80;;;;;;4926462;29;20159;-42
2021/11/25 07:38:32;;;;;;;3.28;2.17;;;20.20;51.70;;;;;;4926704;29;20382;-43
2021/11/25 07:40:59;;;;;;;3.67;2.40;;;20.20;51.50;;;;;;4926614;29;20039;-42
2021/11/25 07:43:27;;;;;;;4.10;2.97;;;20.10;51.50;;;;;;4926679;29;20032;-42
2021/11/25 07:45:53;;;;;;;3.58;2.55;;;20.00;51.60;;;;;;4938808;29;20091;-42
2021/11/25 07:48:19;;;;;;;3.83;2.60;;;20.00;51.80;;;;;;4942439;29;20121;-43
2021/11/25 07:50:45;;;;;;;3.70;2.70;;;20.00;51.70;;;;;;4927012;29;20029;-42
2021/11/25 07:53:11;;;;;;;3.45;2.75;;;20.20;51.80;;;;;;4926418;29;20109;-41
2021/11/25 07:55:37;;;;;;;3.97;2.65;;;20.20;51.80;;;;;;4926363;29;20352;-41
2021/11/25 07:58:03;;;;;;;3.22;2.28;;;20.20;51.60;;;;;;4915580;29;20116;-42
2021/11/25 08:00:30;;;;;;;3.03;2.50;;;20.20;51.50;;;;;;4926416;29;20053;-42
2021/11/25 08:02:56;;;;;;;3.60;2.72;;;20.10;51.50;;;;;;4926286;29;20056;-42
2021/11/25 08:05:26;;;;;;;2.23;1.87;;;20.00;51.60;;;;;;4926560;29;20024;-44
2021/11/25 08:07:55;;;;;;;3.63;2.40;;;20.10;51.70;;;;;;4926485;29;20275;-42
2021/11/25 08:10:23;;;;;;;3.90;2.63;;;20.10;51.70;;;;;;4926451;29;20091;-41
2021/11/25 08:12:49;;;;;;;3.92;2.58;;;20.20;51.60;;;;;;4926302;29;20509;-41
2021/11/25 08:15:15;;;;;;;3.72;2.58;;;20.20;51.50;;;;;;4926452;29;20044;-42
2021/11/25 08:17:41;;;;;;;2.92;2.28;;;20.10;51.30;;;;;;4926015;29;20036;-41
2021/11/25 08:20:09;;;;;;;4.07;2.63;;;20.00;51.40;;;;;;4926187;29;20048;-41
2021/11/25 08:22:35;;;;;;;3.95;2.60;;;20.00;51.60;;;;;;4926063;29;20024;-44
2021/11/25 08:25:02;;;;;;;5.30;3.25;;;20.00;51.70;;;;;;4924983;29;20044;-42
2021/11/25 08:27:28;;;;;;;3.63;2.83;;;20.10;51.60;;;;;;4926049;29;20083;-41
2021/11/25 08:29:55;;;;;;;3.97;2.60;;;20.20;51.70;;;;;;4926178;29;20545;-42
2021/11/25 08:32:21;;;;;;;3.08;2.58;;;20.20;51.60;;;;;;4925932;29;20131;-42
2021/11/25 08:34:47;;;;;;;3.40;2.40;;;20.20;51.50;;;;;;4926371;29;20060;-42
2021/11/25 08:37:13;;;;;;;3.97;2.60;;;20.20;51.40;;;;;;4925987;29;20095;-41
2021/11/25 08:39:39;;;;;;;3.10;2.28;;;20.00;51.40;;;;;;4925914;29;20070;-41
2021/11/25 08:42:06;;;;;;;3.75;2.78;;;20.00;51.50;;;;;;4926286;29;20072;-41
2021/11/25 08:44:32;;;;;;;3.63;2.60;;;20.00;51.60;;;;;;4925427;29;20039;-44
2021/11/25 08:46:59;;;;;;;3.78;2.40;;;20.10;51.60;;;;;;4926161;29;20028;-41
2021/11/25 08:49:25;;;;;;;3.67;2.60;;;20.20;51.60;;;;;;4925892;29;20120;-41
2021/11/25 08:51:51;;;;;;;3.75;2.83;;;20.20;51.50;;;;;;4927970;29;20034;-42
2021/11/25 08:54:17;;;;;;;4.18;2.63;;;20.20;51.30;;;;;;4929532;29;20036;-41
2021/11/25 08:56:43;;;;;;;4.10;2.70;;;20.10;51.40;;;;;;4923163;29;20036;-44
2021/11/25 08:59:10;;;;;;;5.30;2.92;;;20.00;51.40;;;;;;4910863;29;20123;-43
2021/11/25 09:01:36;;;;;;;5.03;3.00;;;20.00;51.70;;;;;;4910938;29;20081;-42
2021/11/25 09:04:02;;;;;;;4.50;2.67;;;20.10;51.60;;;;;;4910641;29;20055;-42
2021/11/25 09:06:28;;;;;;;3.75;2.58;;;20.20;51.70;;;;;;4910808;29;20058;-41
2021/11/25 09:08:54;;;;;;;5.25;2.83;;;20.20;51.60;;;;;;4910773;29;20096;-41
2021/11/25 09:11:20;;;;;;;3.80;2.35;;;20.20;51.40;;;;;;4909222;29;20043;-43
2021/11/25 09:13:46;;;;;;;3.63;2.80;;;20.10;51.40;;;;;;4909077;29;20021;-41
2021/11/25 09:16:12;;;;;;;3.85;2.55;;;20.00;51.40;;;;;;4910783;29;20040;-43
2021/11/25 09:18:38;;;;;;;3.35;2.75;;;19.90;51.60;;;;;;4910195;29;20109;-41
2021/11/25 09:21:05;;;;;;;4.07;2.67;;;20.00;51.60;;;;;;4924806;29;20083;-42
2021/11/25 09:23:31;;;;;;;4.13;2.50;;;20.10;51.60;;;;;;4929381;29;20088;-41
2021/11/25 09:25:57;;;;;;;3.60;2.22;;;20.20;51.60;;;;;;4928254;29;20028;-41
2021/11/25 09:28:25;;;;;;;3.60;2.88;;;20.20;51.60;;;;;;4918003;29;20066;-41
2021/11/25 09:30:51;;;;;;;2.78;2.33;;;20.20;51.50;;;;;;4929335;29;20091;-42
2021/11/25 09:33:18;;;;;;;3.40;2.37;;;20.10;51.40;;;;;;4929541;29;20043;-42
2021/11/25 09:35:44;;;;;;;3.92;2.33;;;20.00;51.50;;;;;;4928652;29;20287;-44
2021/11/25 09:38:10;;;;;;;3.83;2.53;;;19.90;51.60;;;;;;4929108;29;20051;-42
2021/11/25 09:40:37;;;;;;;2.20;1.80;;;20.10;51.70;;;;;;4929115;29;20055;-43
2021/11/25 09:43:05;;;;;;;4.07;2.83;;;20.10;51.60;;;;;;4929049;29;20032;-41
2021/11/25 09:45:32;;;;;;;2.92;2.50;;;20.20;51.60;;;;;;4928921;29;20032;-41
2021/11/25 09:48:01;;;;;;;4.28;2.88;;;20.20;51.60;;;;;;4928939;29;20038;-41
2021/11/25 09:50:30;;;;;;;4.75;2.80;;;20.20;51.50;;;;;;4929031;29;20040;-41
2021/11/25 09:52:58;;;;;;;3.92;2.80;;;20.10;51.50;;;;;;4929061;29;20121;-40
2021/11/25 09:55:24;;;;;;;3.75;2.75;;;20.00;51.60;;;;;;4921716;29;20464;-43
2021/11/25 09:57:51;;;;;;;3.30;2.40;;;20.00;51.70;;;;;;4920643;29;20052;-41
2021/11/25 10:00:17;;;;;;;4.47;3.13;;;20.10;51.70;;;;;;4909828;29;20402;-42
2021/11/25 10:02:43;;;;;;;3.55;2.58;;;20.10;51.60;;;;;;4909956;29;20048;-43
2021/11/25 10:05:10;;;;;;;3.75;2.60;;;20.20;51.60;;;;;;4909764;29;20036;-40
2021/11/25 10:07:37;;;;;;;3.15;2.58;;;20.20;51.50;;;;;;4909880;29;20032;-42
2021/11/25 10:10:35;;;;;;;;;;;20.20;51.40;;;;;;4910058;29;20033;-40
2021/11/25 10:13:15;;;;;;;3.55;2.97;;;20.00;51.40;;;;;;4888317;29;19912;-41
2021/11/25 10:15:42;;;;;;;4.60;2.90;;;20.00;51.60;;;;;;4888252;29;20078;-41
2021/11/25 10:18:12;;;;;;;4.30;2.65;;;20.00;51.60;;;;;;4888148;29;20078;-40
2021/11/25 10:20:40;;;;;;;3.85;3.13;;;20.10;51.50;;;;;;4900354;29;20052;-42
2021/11/25 10:23:07;;;;;;;4.40;2.80;;;20.20;51.60;;;;;;4906678;29;20041;-41
2021/11/25 10:25:45;;;;;;;3.38;2.60;;;20.20;51.50;;;;;;4898521;29;20040;-41
2021/11/25 10:28:38;;;;;;;4.00;2.97;;;20.20;51.40;;;;;;4906448;29;20460;-40
2021/11/25 10:31:21;;;;;;;4.05;2.88;;;20.00;51.40;;;;;;4906825;29;20024;-40
2021/11/25 10:33:56;;;;;;;4.15;2.80;;;19.90;51.50;;;;;;4906861;29;20033;-42
2021/11/25 10:36:33;;;;;;;4.18;3.05;;;20.00;51.60;;;;;;4906428;29;20036;-41
2021/11/25 10:39:29;;;;;;;4.88;3.10;;;20.10;51.60;;;;;;4906570;29;20036;-41
2021/11/25 10:41:59;;;;;;;4.35;3.33;;;20.20;51.60;;;;;;4906942;29;20060;-40
2021/11/25 10:44:30;;;;;;;3.80;2.60;;;20.20;51.50;;;;;;4906621;29;20659;-40
2021/11/25 10:47:01;;;;;;;3.70;2.80;;;20.20;51.90;;;;;;4905993;29;20047;-40
2021/11/25 10:49:53;;;;;;;4.78;2.80;;;20.10;51.40;;;;;;4924692;29;20051;-40
2021/11/25 10:52:39;;;;;;;5.07;3.20;;;20.00;51.50;;;;;;4928011;29;20127;-40
2021/11/25 10:55:13;;;;;;;3.42;2.50;;;20.00;51.60;;;;;;4923144;29;20410;-40
2021/11/25 10:57:41;;;;;;;4.22;2.97;;;20.10;51.60;;;;;;4919959;29;20147;-40
2021/11/25 11:00:22;;;;;;;4.60;3.25;;;20.20;51.70;;;;;;4908870;29;20053;-41
2021/11/25 11:02:49;;;;;;;4.55;3.33;;;20.20;51.60;;;;;;4908767;29;20032;-41
2021/11/25 11:05:21;;;;;;;4.38;3.00;;;20.20;51.40;;;;;;4908763;29;20037;-43
2021/11/25 11:07:48;;;;;;;4.18;2.78;;;20.10;51.40;;;;;;4908799;29;20040;-43
2021/11/25 11:10:24;;;;;;;4.18;2.75;;;19.90;51.40;;;;;;4908516;29;20032;-44
2021/11/25 11:15:51;;;;;;;4.22;3.30;;;20.00;51.60;;;;;;4945897;29;20051;-43
2021/11/25 11:20:47;;;;;;;3.55;2.78;;;20.20;51.60;;;;;;4927477;29;20838;-41
2021/11/25 11:23:14;;;;;;;3.38;2.65;;;20.20;51.40;;;;;;4927275;29;20040;-42
2021/11/25 11:25:42;;;;;;;4.25;3.15;;;20.10;51.30;;;;;;4891142;29;20056;-41
2021/11/25 11:28:09;;;;;;;3.78;2.80;;;20.00;51.40;;;;;;4925512;29;20047;-41
2021/11/25 11:30:36;;;;;;;3.90;3.10;;;20.00;51.50;;;;;;4927444;29;20028;-43
2021/11/25 11:33:09;;;;;;;4.65;3.50;;;20.00;51.60;;;;;;4924114;29;20028;-42
2021/11/25 11:35:36;;;;;;;4.35;3.10;;;20.10;51.60;;;;;;4910379;29;20056;-42
2021/11/25 11:38:02;;;;;;;4.80;3.10;;;20.20;51.60;;;;;;4927028;29;20043;-41
2021/11/25 11:40:31;;;;;;;4.45;3.13;;;20.20;51.40;;;;;;4927146;29;20043;-41
2021/11/25 11:42:59;;;;;;;4.53;2.70;;;20.20;51.40;;;;;;4927263;29;20111;-41
2021/11/25 11:45:26;;;;;;;4.47;2.95;;;20.00;51.40;;;;;;4927015;29;20047;-41
2021/11/25 11:47:54;;;;;;;4.82;2.90;;;20.00;51.50;;;;;;4912996;29;20029;-43
2021/11/25 11:50:28;;;;;;;3.95;2.88;;;20.00;51.60;;;;;;4891466;29;20036;-43
2021/11/25 11:52:56;;;;;;;4.22;2.65;;;20.10;51.60;;;;;;4907917;29;20056;-41
2021/11/25 11:55:36;;;;;;;3.83;2.90;;;20.20;51.70;;;;;;4912583;29;20037;-41
2021/11/25 11:58:21;;;;;;;4.35;3.13;;;20.30;51.60;;;;;;4917189;29;20152;-41
2021/11/25 12:00:48;;;;;;;3.22;2.60;;;20.20;51.40;;;;;;4907841;29;20033;-41
2021/11/25 12:03:29;;;;;;;4.40;2.92;;;20.10;51.40;;;;;;4890911;29;20036;-42
2021/11/25 12:05:55;;;;;;;3.53;2.75;;;20.00;51.50;;;;;;4907740;29;20047;-42
2021/11/25 12:08:23;;;;;;;3.90;2.92;;;20.00;51.60;;;;;;4907561;29;20032;-42
2021/11/25 12:10:56;;;;;;;3.65;2.70;;;20.10;51.50;;;;;;4907590;29;20058;-41
2021/11/25 12:13:44;;;;;;;4.07;2.78;;;20.20;51.60;;;;;;4907882;29;20064;-42
2021/11/25 12:16:19;;;;;;;3.25;2.60;;;20.20;51.40;;;;;;4906351;29;20024;-42
2021/11/25 12:18:55;;;;;;;4.47;2.97;;;20.10;51.30;;;;;;4907125;29;20071;-41
2021/11/25 12:21:46;;;;;;;3.90;2.65;;;20.00;51.40;;;;;;4907150;29;20029;-41
2021/11/25 12:24:32;;;;;;;5.93;2.83;;;19.90;51.50;;;;;;4907129;29;20033;-42
2021/11/25 12:26:58;;;;;;;5.18;2.90;;;20.10;51.60;;;;;;4896488;29;20037;-44
2021/11/25 12:29:48;;;;;;;5.53;2.97;;;20.20;51.60;;;;;;4907469;29;20061;-43
2021/11/25 12:32:34;;;;;;;3.90;2.78;;;20.20;51.50;;;;;;4900072;29;20033;-43
2021/11/25 12:35:15;;;;;;;3.67;2.65;;;20.20;51.30;;;;;;4888748;29;20048;-42
2021/11/25 12:37:47;;;;;;;3.40;2.63;;;20.10;51.30;;;;;;4916642;29;20044;-41
2021/11/25 12:40:22;;;;;;;4.95;2.85;;;19.90;51.40;;;;;;4907404;29;20401;-41
2021/11/25 12:42:52;;;;;;;4.57;3.10;;;20.00;51.60;;;;;;4905880;29;20053;-41
2021/11/25 12:45:22;;;;;;;3.67;2.80;;;20.10;51.60;;;;;;4892021;29;20067;-43
2021/11/25 12:48:09;;;;;;;4.43;2.95;;;20.20;51.50;;;;;;4888965;29;20067;-42
2021/11/25 12:50:42;;;;;;;4.40;3.08;;;20.20;51.40;;;;;;4888551;29;20033;-41
2021/11/25 12:53:13;;;;;;;3.47;2.75;;;20.20;51.30;;;;;;4888402;29;20078;-41
2021/11/25 12:55:40;;;;;;;4.20;2.85;;;20.10;51.30;;;;;;4897102;29;20044;-42
2021/11/25 12:58:06;;;;;;;3.78;2.88;;;20.00;51.40;;;;;;4895863;29;20035;-41
2021/11/25 13:00:34;;;;;;;4.47;3.07;;;20.00;51.50;;;;;;4907313;29;20041;-41